Time;durP1;ratioP1;P1;durP2;ratioP2;P2;SDS_P1;SDS_P2;PMS_P1;PMS_P2;Temp;Humidity;BMP_temperature;BMP_pressure;BME280_temperature;BME280_humidity;BME280_pressure;Samples;Min_cycle;Max_cycle;Signal;HPM_P1;HPM_P2
2021/05/02 00:01:08;;;;;;;10.15;3.80;;;;;;;34.19;20.79;93989.84;5096131;28;20492;-52
2021/05/02 00:03:35;;;;;;;10.45;3.75;;;;;;;34.39;20.53;93986.03;5095225;28;20331;-51
2021/05/02 00:06:04;;;;;;;14.15;3.53;;;;;;;34.04;21.26;93978.03;5075754;28;20119;-51
2021/05/02 00:08:32;;;;;;;11.25;3.47;;;;;;;33.98;21.34;93983.28;5074711;28;20040;-54
2021/05/02 00:10:59;;;;;;;10.38;3.45;;;;;;;33.53;22.15;93959.41;5093775;28;20055;-55
2021/05/02 00:13:26;;;;;;;12.38;3.35;;;;;;;34.09;21.62;93947.63;5095999;28;20492;-54
2021/05/02 00:15:54;;;;;;;10.55;3.72;;;;;;;33.81;21.76;93949.44;5095379;28;20348;-55
2021/05/02 00:18:26;;;;;;;10.05;3.25;;;;;;;34.05;21.69;93954.38;5095894;28;20051;-57
2021/05/02 00:20:54;;;;;;;9.85;3.67;;;;;;;34.15;20.91;93951.28;5095779;28;20048;-59
2021/05/02 00:23:22;;;;;;;10.00;3.60;;;;;;;33.60;22.01;93952.97;5095732;28;20472;-55
2021/05/02 00:25:56;;;;;;;10.65;3.58;;;;;;;34.07;21.10;93955.44;5095354;28;20050;-55
2021/05/02 00:28:24;;;;;;;7.38;3.40;;;;;;;34.36;21.43;93949.72;5095715;28;20044;-56
2021/05/02 00:30:51;;;;;;;10.27;3.53;;;;;;;33.16;22.43;93949.50;5094916;28;20053;-53
2021/05/02 00:33:18;;;;;;;8.00;3.50;;;;;;;33.09;22.93;93945.88;5094441;28;20044;-54
2021/05/02 00:35:48;;;;;;;7.57;3.38;;;;;;;33.55;22.27;93948.88;5075058;28;20056;-57
2021/05/02 00:38:15;;;;;;;8.95;3.50;;;;;;;34.04;21.70;93950.94;5075293;28;20040;-53
2021/05/02 00:40:43;;;;;;;9.93;3.67;;;;;;;33.16;22.02;93950.28;5090978;28;20048;-56
2021/05/02 00:43:18;;;;;;;8.80;3.60;;;;;;;33.76;21.95;93935.72;5095226;28;20055;-55
2021/05/02 00:45:57;;;;;;;11.73;3.65;;;;;;;33.42;21.96;93929.25;5075768;28;20052;-55
2021/05/02 00:48:32;;;;;;;8.98;3.60;;;;;;;33.57;22.05;93929.47;5074459;28;20075;-59
2021/05/02 00:51:04;;;;;;;8.57;3.50;;;;;;;33.50;22.29;93935.91;5073808;28;20056;-51
2021/05/02 00:53:46;;;;;;;9.40;3.65;;;;;;;33.43;22.12;93922.63;5075631;28;20059;-53
2021/05/02 00:56:24;;;;;;;9.37;3.03;;;;;;;33.47;21.98;93900.81;5090695;28;20055;-55
2021/05/02 00:59:19;;;;;;;7.10;3.53;;;;;;;33.91;21.20;93909.63;5095375;28;20048;-56
2021/05/02 01:01:52;;;;;;;10.25;3.28;;;;;;;33.44;22.04;93905.19;5094274;28;20078;-53
2021/05/02 01:04:40;;;;;;;;;;;;;;;34.06;20.71;93897.00;5080733;28;20469;-56
2021/05/02 01:07:20;;;;;;;5.80;3.10;;;;;;;33.96;21.11;93903.63;5095279;28;19919;-58
2021/05/02 01:09:49;;;;;;;8.45;3.22;;;;;;;33.88;21.30;93900.44;5086731;28;20053;-56
2021/05/02 01:12:19;;;;;;;9.77;3.45;;;;;;;33.30;22.02;93905.66;5075088;28;20498;-52
2021/05/02 01:14:52;;;;;;;9.88;3.20;;;;;;;34.06;21.31;93897.00;5074417;28;20056;-51
2021/05/02 01:17:20;;;;;;;12.57;3.60;;;;;;;33.66;21.43;93894.28;5074846;28;20045;-51
2021/05/02 01:19:48;;;;;;;7.78;3.65;;;;;;;33.34;22.08;93876.53;5074875;28;20047;-50
2021/05/02 01:22:17;;;;;;;6.75;3.05;;;;;;;33.94;21.23;93892.47;5074824;28;20475;-52
2021/05/02 01:24:47;;;;;;;9.45;3.45;;;;;;;33.73;21.41;93900.19;5074485;28;20051;-57
2021/05/02 01:27:29;;;;;;;10.13;3.35;;;;;;;32.77;22.90;93897.47;5074164;28;20049;-51
2021/05/02 01:29:57;;;;;;;9.30;3.15;;;;;;;33.54;21.40;93901.31;5074817;28;20053;-53
2021/05/02 01:32:26;;;;;;;8.43;3.10;;;;;;;33.50;21.87;93887.13;5074765;28;20049;-50
2021/05/02 01:34:54;;;;;;;6.45;3.08;;;;;;;33.08;22.02;93890.22;5074329;28;20040;-52
2021/05/02 01:37:21;;;;;;;9.05;3.80;;;;;;;33.16;22.28;93869.03;5074788;28;20041;-52
2021/05/02 01:39:49;;;;;;;8.65;3.17;;;;;;;32.91;22.31;93859.09;5082854;28;20048;-52
2021/05/02 01:42:17;;;;;;;10.00;3.63;;;;;;;33.31;22.07;93870.06;5094818;28;20477;-53
2021/05/02 01:44:44;;;;;;;7.53;3.67;;;;;;;32.98;22.22;93856.13;5094493;28;20397;-52
2021/05/02 01:47:20;;;;;;;8.55;3.95;;;;;;;33.59;21.67;93873.66;5094850;28;20047;-51
2021/05/02 01:50:07;;;;;;;9.35;3.53;;;;;;;33.49;21.78;93885.63;5094645;28;20117;-51
2021/05/02 01:52:46;;;;;;;10.32;3.50;;;;;;;33.47;22.01;93898.13;5094932;28;20067;-51
2021/05/02 01:55:15;;;;;;;9.05;2.75;;;;;;;33.32;22.21;93881.66;5094581;28;20118;-53
2021/05/02 01:57:53;;;;;;;8.48;3.10;;;;;;;33.37;21.61;93868.28;5095192;28;20051;-51
2021/05/02 02:00:24;;;;;;;;;;;;;;;33.67;21.72;93896.56;5098244;28;20055;-49
2021/05/02 02:03:01;;;;;;;9.73;3.60;;;;;;;32.97;22.45;93886.34;5098616;28;19923;-49
2021/05/02 02:05:30;;;;;;;9.83;3.27;;;;;;;33.66;21.45;93886.91;5097669;28;20055;-55
2021/05/02 02:08:01;;;;;;;8.35;3.20;;;;;;;33.32;22.32;93882.41;5098392;28;20378;-57
2021/05/02 02:10:30;;;;;;;10.90;3.40;;;;;;;33.29;22.12;93877.06;5084118;28;20056;-56
2021/05/02 02:12:57;;;;;;;14.05;3.05;;;;;;;33.05;22.81;93882.97;5077983;28;20048;-54
2021/05/02 02:15:27;;;;;;;8.85;3.22;;;;;;;33.18;22.04;93882.13;5088235;28;20044;-56
2021/05/02 02:18:00;;;;;;;7.88;3.25;;;;;;;32.75;22.80;93886.31;5098391;28;20084;-53
2021/05/02 02:20:29;;;;;;;7.07;3.13;;;;;;;32.90;23.08;93879.25;5098190;28;20052;-52
2021/05/02 02:23:01;;;;;;;8.10;2.88;;;;;;;33.11;22.61;93872.31;5098020;28;20047;-52
2021/05/02 02:25:32;;;;;;;7.47;3.05;;;;;;;32.82;22.93;93878.00;5085134;28;20037;-52
2021/05/02 02:28:02;;;;;;;11.65;3.25;;;;;;;32.86;22.46;93856.22;5076972;28;20056;-51
2021/05/02 02:30:32;;;;;;;10.50;3.25;;;;;;;33.08;21.99;93849.59;5077544;28;20044;-52
2021/05/02 02:33:00;;;;;;;12.40;3.17;;;;;;;32.94;22.21;93852.81;5077655;28;20052;-50
2021/05/02 02:35:27;;;;;;;10.50;2.42;;;;;;;32.27;23.34;93855.88;5059701;28;20447;-53
2021/05/02 02:37:55;;;;;;;9.38;3.00;;;;;;;33.03;22.29;93855.56;5089629;28;20477;-53
2021/05/02 02:40:23;;;;;;;10.70;3.00;;;;;;;32.16;23.39;93850.78;5092869;28;20048;-51
2021/05/02 02:42:51;;;;;;;7.68;3.28;;;;;;;33.13;22.13;93847.50;5097644;28;20047;-51
2021/05/02 02:45:19;;;;;;;8.02;2.50;;;;;;;32.53;22.95;93842.25;5096480;28;20040;-53
2021/05/02 02:47:52;;;;;;;6.28;2.90;;;;;;;32.21;23.37;93857.59;5097538;28;20052;-52
2021/05/02 02:50:20;;;;;;;8.05;3.35;;;;;;;32.68;22.79;93862.22;5097224;28;20473;-52
2021/05/02 02:52:53;;;;;;;10.57;3.20;;;;;;;32.29;23.33;93864.31;5097505;28;20062;-57
2021/05/02 02:55:23;;;;;;;9.90;3.88;;;;;;;32.21;23.44;93874.56;5097244;28;20055;-52
2021/05/02 02:58:00;;;;;;;10.88;3.33;;;;;;;33.06;22.72;93884.47;5096325;28;20039;-54
2021/05/02 03:00:36;;;;;;;8.07;3.25;;;;;;;32.19;23.65;93884.31;5097135;28;20054;-54
2021/05/02 03:03:16;;;;;;;7.13;3.30;;;;;;;31.89;24.00;93875.59;5096884;28;20051;-57
2021/05/02 03:05:45;;;;;;;9.15;3.83;;;;;;;32.24;23.81;93886.47;5096167;28;20051;-52
2021/05/02 03:08:12;;;;;;;14.32;3.85;;;;;;;32.10;23.63;93889.63;5097241;28;20051;-51
2021/05/02 03:10:43;;;;;;;8.80;3.40;;;;;;;31.87;23.97;93886.09;5094099;28;20044;-57
2021/05/02 03:13:11;;;;;;;8.60;3.22;;;;;;;31.57;24.42;93884.66;5095976;28;20047;-55
2021/05/02 03:15:39;;;;;;;11.27;3.60;;;;;;;32.96;23.12;93891.00;5096742;28;20386;-54
2021/05/02 03:18:13;;;;;;;7.68;2.97;;;;;;;31.49;24.96;93893.41;5096982;28;20048;-54
2021/05/02 03:20:41;;;;;;;9.23;3.47;;;;;;;32.96;23.22;93888.31;5096524;28;20047;-54
2021/05/02 03:23:39;;;;;;;8.43;2.90;;;;;;;32.14;24.06;93890.28;5095729;28;20040;-52
2021/05/02 03:26:08;;;;;;;7.70;3.33;;;;;;;32.57;24.13;93894.31;5092836;28;20043;-57
2021/05/02 03:28:52;;;;;;;8.65;3.40;;;;;;;32.76;23.68;93895.94;5096816;28;20048;-56
2021/05/02 03:31:26;;;;;;;10.52;3.83;;;;;;;32.12;24.28;93887.25;5096632;28;20044;-51
2021/05/02 03:33:55;;;;;;;10.00;3.70;;;;;;;32.35;24.16;93900.44;5095483;28;20055;-49
2021/05/02 03:36:33;;;;;;;9.55;3.60;;;;;;;32.22;24.29;93878.03;5095576;28;20048;-50
2021/05/02 03:39:01;;;;;;;12.27;3.75;;;;;;;32.74;23.54;93879.41;5094249;28;20055;-55
2021/05/02 03:41:28;;;;;;;12.48;4.38;;;;;;;32.58;23.92;93883.06;5076296;28;20045;-52
2021/05/02 03:43:56;;;;;;;11.70;3.65;;;;;;;32.59;23.27;93881.84;5075046;28;20055;-56
2021/05/02 03:46:24;;;;;;;10.60;3.70;;;;;;;32.72;23.11;93887.19;5076240;28;20051;-56
2021/05/02 03:48:55;;;;;;;9.60;4.25;;;;;;;32.45;23.75;93893.91;5076007;28;20048;-54
2021/05/02 03:51:22;;;;;;;6.37;3.73;;;;;;;32.69;23.38;93901.63;5075907;28;20447;-56
2021/05/02 03:53:50;;;;;;;10.80;4.40;;;;;;;31.92;24.25;93890.19;5075876;28;20048;-54
2021/05/02 03:56:41;;;;;;;9.13;3.75;;;;;;;32.49;24.20;93889.13;5075835;28;20048;-55
2021/05/02 03:59:22;;;;;;;12.18;3.40;;;;;;;31.93;25.08;93877.44;5074697;28;20052;-54
2021/05/02 04:01:50;;;;;;;10.17;3.97;;;;;;;33.02;23.65;93881.13;5075970;28;20435;-55
2021/05/02 04:04:20;;;;;;;13.25;3.85;;;;;;;31.92;24.63;93878.63;5075639;28;20447;-54
2021/05/02 04:06:47;;;;;;;14.60;4.60;;;;;;;32.90;23.33;93908.28;5075848;28;20037;-50
2021/05/02 04:09:15;;;;;;;12.35;4.80;;;;;;;32.29;23.93;93888.66;5078335;28;20060;-53
2021/05/02 04:11:44;;;;;;;12.63;3.78;;;;;;;32.75;23.61;93889.03;5095837;28;20043;-50
2021/05/02 04:14:13;;;;;;;13.55;5.82;;;;;;;32.37;24.77;93887.22;5095824;28;20046;-50
2021/05/02 04:16:41;;;;;;;10.27;4.10;;;;;;;33.00;24.01;93888.19;5095840;28;20040;-51
2021/05/02 04:19:09;;;;;;;9.85;4.43;;;;;;;32.10;25.06;93876.13;5095670;28;20048;-52
2021/05/02 04:21:37;;;;;;;12.73;4.40;;;;;;;32.09;24.46;93882.72;5095131;28;20383;-52
2021/05/02 04:24:05;;;;;;;10.02;4.03;;;;;;;32.32;24.38;93874.25;5094590;28;20055;-55
2021/05/02 04:26:32;;;;;;;9.82;4.57;;;;;;;32.37;24.36;93875.66;5095764;28;20047;-53
2021/05/02 04:28:59;;;;;;;12.40;4.65;;;;;;;32.75;23.54;93892.47;5095579;28;20056;-53
2021/05/02 04:31:27;;;;;;;11.70;4.00;;;;;;;33.10;22.82;93887.81;5086593;28;20044;-53
2021/05/02 04:33:54;;;;;;;8.88;4.13;;;;;;;32.47;23.75;93883.41;5075285;28;20048;-55
2021/05/02 04:36:21;;;;;;;12.02;4.05;;;;;;;32.57;23.67;93886.19;5075244;28;20051;-52
2021/05/02 04:38:48;;;;;;;10.38;3.75;;;;;;;33.45;22.77;93895.84;5088637;28;20107;-54
2021/05/02 04:41:15;;;;;;;11.68;3.90;;;;;;;32.13;24.67;93888.75;5074836;28;20363;-52
2021/05/02 04:43:42;;;;;;;10.90;4.20;;;;;;;32.64;24.15;93884.00;5075140;28;20048;-52
2021/05/02 04:46:11;;;;;;;10.05;3.95;;;;;;;34.22;22.28;93891.31;5075328;28;20037;-53
2021/05/02 04:48:42;;;;;;;12.55;5.10;;;;;;;33.95;22.40;93899.38;5077504;28;20509;-51
2021/05/02 04:51:10;;;;;;;9.00;4.30;;;;;;;33.21;23.19;93897.50;5089105;28;20090;-52
2021/05/02 04:53:38;;;;;;;12.45;4.00;;;;;;;34.46;22.14;93890.78;5075139;28;20047;-51
2021/05/02 04:56:05;;;;;;;8.98;3.30;;;;;;;34.03;21.86;93884.34;5075151;28;20051;-51
2021/05/02 04:58:32;;;;;;;10.10;3.78;;;;;;;34.03;21.75;93884.34;5075201;28;20109;-48
2021/05/02 05:00:59;;;;;;;13.10;3.53;;;;;;;34.07;21.86;93887.66;5077742;28;20055;-51
2021/05/02 05:03:28;;;;;;;8.65;3.10;;;;;;;34.52;20.93;93875.41;5075108;28;20044;-55
2021/05/02 05:05:55;;;;;;;8.77;3.72;;;;;;;33.90;22.00;93870.16;5074897;28;20043;-51
2021/05/02 05:08:22;;;;;;;8.85;4.00;;;;;;;34.11;21.55;93880.16;5075125;28;20044;-52
2021/05/02 05:10:49;;;;;;;9.15;3.78;;;;;;;34.68;20.73;93872.41;5091424;28;20051;-49
2021/05/02 05:13:16;;;;;;;10.93;3.90;;;;;;;34.85;20.91;93873.63;5094992;28;20492;-51
2021/05/02 05:15:43;;;;;;;9.98;3.53;;;;;;;34.75;21.07;93872.09;5087677;28;20367;-53
2021/05/02 05:18:11;;;;;;;9.23;3.28;;;;;;;34.33;21.50;93866.47;5074850;28;20052;-55
2021/05/02 05:20:38;;;;;;;9.18;4.05;;;;;;;34.54;21.59;93870.28;5075035;28;20045;-52
2021/05/02 05:23:05;;;;;;;9.70;4.18;;;;;;;34.47;21.95;93876.75;5074781;28;20463;-55
2021/05/02 05:25:32;;;;;;;10.20;3.75;;;;;;;35.14;20.90;93881.28;5074885;28;20075;-51
2021/05/02 05:27:59;;;;;;;11.50;4.22;;;;;;;34.29;21.71;93884.84;5074516;28;20351;-53
2021/05/02 05:30:26;;;;;;;13.75;4.35;;;;;;;34.92;21.25;93892.31;5074932;28;20048;-53
2021/05/02 05:33:03;;;;;;;10.52;3.83;;;;;;;35.28;20.47;93917.91;5074837;28;20045;-51
2021/05/02 05:35:31;;;;;;;9.90;3.95;;;;;;;35.67;19.63;93899.13;5077660;28;20048;-56
2021/05/02 05:37:58;;;;;;;9.57;4.10;;;;;;;35.52;20.15;93909.91;5078373;28;20375;-56
2021/05/02 05:40:27;;;;;;;11.00;3.67;;;;;;;34.84;21.06;93901.97;5092316;28;20044;-52
2021/05/02 05:42:54;;;;;;;13.52;4.45;;;;;;;35.03;20.84;93893.81;5097956;28;20048;-54
2021/05/02 05:45:22;;;;;;;10.32;4.28;;;;;;;35.52;20.24;93894.34;5098547;28;20067;-53
2021/05/02 05:47:53;;;;;;;9.75;3.80;;;;;;;35.59;20.09;93887.06;5087210;28;20048;-51
2021/05/02 05:50:22;;;;;;;13.55;3.67;;;;;;;35.82;19.69;93889.88;5098548;28;20055;-54
2021/05/02 05:52:51;;;;;;;13.65;4.03;;;;;;;36.09;20.36;93891.69;5098781;28;20083;-55
2021/05/02 05:55:19;;;;;;;13.15;3.63;;;;;;;35.96;19.80;93879.53;5098610;28;20079;-52
2021/05/02 05:57:50;;;;;;;10.85;3.90;;;;;;;36.22;19.71;93888.00;5087965;28;20052;-53
2021/05/02 06:00:19;;;;;;;12.02;4.55;;;;;;;36.19;19.96;93886.97;5098516;28;20040;-51
2021/05/02 06:02:46;;;;;;;10.70;3.95;;;;;;;36.04;19.66;93886.91;5080736;28;20362;-51
2021/05/02 06:05:14;;;;;;;9.70;3.90;;;;;;;36.40;18.76;93890.63;5098136;28;20047;-52
2021/05/02 06:07:43;;;;;;;10.35;3.97;;;;;;;36.01;18.71;93878.91;5088546;28;20047;-52
2021/05/02 06:10:12;;;;;;;10.35;3.78;;;;;;;36.89;16.16;93873.78;5089515;28;20043;-52
2021/05/02 06:12:40;;;;;;;13.10;3.88;;;;;;;37.02;16.26;93881.72;5098309;28;20048;-52
2021/05/02 06:15:10;;;;;;;13.15;4.45;;;;;;;36.71;15.80;93863.81;5097089;28;20336;-50
2021/05/02 06:17:37;;;;;;;14.63;4.15;;;;;;;37.32;15.21;93877.78;5097918;28;20052;-53
2021/05/02 06:20:05;;;;;;;14.10;4.03;;;;;;;37.57;14.80;93870.25;5098122;28;20122;-54
2021/05/02 06:22:33;;;;;;;9.25;3.35;;;;;;;37.73;15.01;93864.31;5098073;28;20446;-50
2021/05/02 06:25:00;;;;;;;11.88;3.80;;;;;;;37.20;15.54;93870.63;5097892;28;20048;-57
2021/05/02 06:27:27;;;;;;;11.32;3.85;;;;;;;37.27;15.56;93872.25;5091303;28;20347;-52
2021/05/02 06:29:54;;;;;;;13.25;4.13;;;;;;;37.27;15.08;93875.75;5077859;28;20044;-55
2021/05/02 06:32:21;;;;;;;8.35;3.58;;;;;;;37.92;14.34;93868.31;5077717;28;20485;-54
2021/05/02 06:34:49;;;;;;;12.52;3.60;;;;;;;37.73;14.54;93888.84;5077501;28;20052;-54
2021/05/02 06:37:16;;;;;;;12.63;3.65;;;;;;;37.75;14.68;93883.72;5077263;28;20052;-55
2021/05/02 06:39:43;;;;;;;13.65;3.70;;;;;;;37.61;14.97;93887.94;5085048;28;20365;-53
2021/05/02 06:42:10;;;;;;;14.70;4.22;;;;;;;37.69;14.98;93882.06;5097638;28;20047;-54
2021/05/02 06:44:37;;;;;;;11.93;3.78;;;;;;;37.87;14.81;93877.19;5097259;28;20051;-56
2021/05/02 06:47:05;;;;;;;15.88;3.90;;;;;;;37.96;14.51;93889.94;5093906;28;20052;-53
2021/05/02 06:49:32;;;;;;;11.00;4.00;;;;;;;37.94;14.50;93876.78;5077394;28;20051;-52
2021/05/02 06:51:59;;;;;;;10.13;3.65;;;;;;;38.20;14.27;93876.91;5082586;28;20067;-52
2021/05/02 06:54:26;;;;;;;17.88;4.60;;;;;;;38.66;13.79;93862.63;5097360;28;20051;-52
2021/05/02 06:56:53;;;;;;;12.93;3.95;;;;;;;37.97;14.40;93859.47;5095903;28;20047;-55
2021/05/02 06:59:21;;;;;;;12.15;3.70;;;;;;;37.79;14.42;93865.19;5079194;28;20359;-57
2021/05/02 07:01:48;;;;;;;12.02;4.03;;;;;;;37.60;14.78;93858.41;5097274;28;20048;-53
2021/05/02 07:04:15;;;;;;;13.27;4.10;;;;;;;38.60;13.77;93859.03;5097396;28;20443;-55
2021/05/02 07:06:42;;;;;;;13.50;4.28;;;;;;;38.60;13.58;93863.75;5096984;28;20047;-56
2021/05/02 07:09:09;;;;;;;11.52;4.13;;;;;;;38.17;14.31;93863.47;5079783;28;20054;-55
2021/05/02 07:11:36;;;;;;;13.63;3.95;;;;;;;38.19;14.07;93863.75;5097039;28;20465;-53
2021/05/02 07:14:04;;;;;;;10.48;3.78;;;;;;;38.09;14.66;93862.34;5096974;28;20054;-55
2021/05/02 07:16:31;;;;;;;14.07;3.95;;;;;;;38.26;14.66;93863.38;5085353;28;20048;-56
2021/05/02 07:18:59;;;;;;;14.23;4.20;;;;;;;38.50;14.58;93877.53;5076657;28;20489;-52
2021/05/02 07:21:26;;;;;;;10.82;4.05;;;;;;;37.93;15.01;93880.72;5076704;28;20055;-54
2021/05/02 07:23:53;;;;;;;12.80;3.88;;;;;;;38.59;14.73;93884.09;5092562;28;20366;-52
2021/05/02 07:26:22;;;;;;;10.93;3.42;;;;;;;38.39;15.01;93896.50;5096882;28;20040;-53
2021/05/02 07:28:50;;;;;;;11.55;3.83;;;;;;;38.19;14.58;93899.22;5090566;28;20359;-51
2021/05/02 07:31:17;;;;;;;14.63;4.13;;;;;;;38.46;14.91;93909.00;5095689;28;20040;-52
2021/05/02 07:33:45;;;;;;;12.23;3.45;;;;;;;38.20;14.84;93909.66;5096535;28;20344;-52
2021/05/02 07:36:14;;;;;;;11.57;3.75;;;;;;;37.88;15.37;93916.88;5096551;28;20055;-54
2021/05/02 07:38:43;;;;;;;12.95;4.03;;;;;;;38.53;14.58;93925.00;5078837;28;20043;-54
2021/05/02 07:41:11;;;;;;;9.73;3.67;;;;;;;38.23;14.69;93924.31;5096007;28;20450;-51
2021/05/02 07:43:40;;;;;;;13.32;4.00;;;;;;;38.40;14.73;93932.75;5096334;28;20044;-52
2021/05/02 07:46:08;;;;;;;11.65;3.95;;;;;;;38.36;15.06;93924.00;5096532;28;20048;-51
2021/05/02 07:48:35;;;;;;;12.93;4.05;;;;;;;38.74;14.91;93934.69;5096268;28;20118;-53
2021/05/02 07:51:03;;;;;;;15.65;4.28;;;;;;;38.46;14.77;93931.59;5096109;28;20051;-51
2021/05/02 07:53:30;;;;;;;14.02;3.88;;;;;;;38.91;14.59;93932.16;5096480;28;20059;-52
2021/05/02 07:55:58;;;;;;;18.10;5.05;;;;;;;38.64;14.92;93927.13;5096178;28;20039;-51
2021/05/02 07:58:25;;;;;;;16.67;4.90;;;;;;;39.22;14.86;93933.50;5081904;28;20057;-51
2021/05/02 08:00:52;;;;;;;11.65;5.05;;;;;;;38.72;15.16;93939.88;5076003;28;20048;-51
2021/05/02 08:03:19;;;;;;;11.30;4.68;;;;;;;39.07;14.73;93928.16;5075870;28;20048;-51
2021/05/02 08:05:48;;;;;;;16.23;4.20;;;;;;;39.05;14.92;93941.50;5075761;28;20048;-54
2021/05/02 08:08:15;;;;;;;11.70;4.13;;;;;;;38.77;14.72;93928.28;5075511;28;20406;-53
2021/05/02 08:10:42;;;;;;;13.45;3.92;;;;;;;38.89;14.66;93929.16;5078603;28;20040;-50
2021/05/02 08:13:09;;;;;;;15.70;4.22;;;;;;;38.82;15.31;93929.59;5075603;28;20052;-51
2021/05/02 08:15:36;;;;;;;14.63;4.03;;;;;;;39.40;14.44;93933.94;5075672;28;20047;-53
2021/05/02 08:18:04;;;;;;;11.90;4.10;;;;;;;39.42;14.11;93930.72;5075439;28;20048;-51
2021/05/02 08:20:31;;;;;;;11.52;4.40;;;;;;;39.54;13.90;93931.59;5085533;28;20056;-53
2021/05/02 08:22:58;;;;;;;16.75;3.95;;;;;;;39.91;14.05;93945.31;5095774;28;20489;-51
2021/05/02 08:25:25;;;;;;;13.18;4.20;;;;;;;39.99;13.87;93940.94;5095662;28;20354;-52
2021/05/02 08:27:52;;;;;;;18.38;4.80;;;;;;;39.73;14.00;93949.91;5087375;28;20044;-53
2021/05/02 08:30:20;;;;;;;12.82;4.03;;;;;;;39.80;14.01;93947.97;5075551;28;20048;-52
2021/05/02 08:32:47;;;;;;;14.35;4.32;;;;;;;39.51;14.44;93949.72;5075583;28;20041;-56
2021/05/02 08:35:14;;;;;;;13.68;4.30;;;;;;;40.30;14.34;93940.88;5075196;28;20048;-52
2021/05/02 08:37:42;;;;;;;13.35;4.63;;;;;;;40.38;13.49;93935.00;5075150;28;20063;-53
2021/05/02 08:40:10;;;;;;;12.02;4.03;;;;;;;40.43;12.94;93942.47;5086518;28;20051;-55
2021/05/02 08:42:37;;;;;;;12.48;4.25;;;;;;;39.90;13.71;93935.63;5095746;28;20044;-51
2021/05/02 08:45:05;;;;;;;16.50;4.78;;;;;;;40.18;13.42;93944.78;5095294;28;20044;-55
2021/05/02 08:47:36;;;;;;;11.20;3.83;;;;;;;40.45;13.05;93937.25;5095165;28;20047;-58
2021/05/02 08:50:13;;;;;;;15.63;4.47;;;;;;;40.29;13.10;93930.41;5095375;28;20051;-56
2021/05/02 08:52:40;;;;;;;13.65;4.07;;;;;;;40.13;13.75;93931.09;5095472;28;20060;-54
2021/05/02 08:55:08;;;;;;;12.52;4.20;;;;;;;39.90;14.26;93936.38;5095143;28;20075;-57
2021/05/02 08:57:36;;;;;;;9.20;4.03;;;;;;;40.25;13.88;93938.84;5095230;28;20051;-56
2021/05/02 09:00:07;;;;;;;17.50;4.80;;;;;;;40.88;12.75;93932.50;5095545;28;20366;-54
2021/05/02 09:02:35;;;;;;;;;;;;;;;40.99;12.77;93913.34;5094730;28;20047;-55
2021/05/02 09:05:05;;;;;;;11.60;4.20;;;;;;;41.13;12.73;93925.34;5095002;28;19919;-56
2021/05/02 09:07:46;;;;;;;13.75;4.15;;;;;;;41.32;13.27;93920.91;5090907;28;20047;-52
2021/05/02 09:10:15;;;;;;;16.20;4.35;;;;;;;41.82;13.03;93906.50;5090821;28;20497;-52
2021/05/02 09:12:44;;;;;;;12.77;4.07;;;;;;;41.65;12.99;93908.50;5099397;28;20122;-57
2021/05/02 09:15:20;;;;;;;16.33;4.65;;;;;;;41.93;13.51;93909.25;5098065;28;20055;-52
2021/05/02 09:18:09;;;;;;;13.52;4.22;;;;;;;41.62;13.74;93909.44;5092936;28;20055;-51
2021/05/02 09:20:54;;;;;;;11.68;4.05;;;;;;;42.05;12.75;93905.22;5079023;28;20052;-52
2021/05/02 09:23:21;;;;;;;13.65;4.55;;;;;;;41.97;12.27;93896.00;5078721;28;20052;-55
2021/05/02 09:25:51;;;;;;;12.52;3.80;;;;;;;41.61;12.37;93897.72;5077844;28;20044;-53
2021/05/02 09:28:39;;;;;;;12.20;4.05;;;;;;;42.04;12.31;93890.00;5088141;28;20040;-52
2021/05/02 09:31:07;;;;;;;13.25;4.13;;;;;;;42.24;11.82;93896.47;5099062;28;20047;-54
2021/05/02 09:33:36;;;;;;;14.25;4.07;;;;;;;42.40;11.48;93892.91;5097769;28;20044;-53
2021/05/02 09:36:10;;;;;;;16.25;3.92;;;;;;;41.91;11.94;93894.53;5099059;28;20039;-52
2021/05/02 09:38:38;;;;;;;14.10;4.00;;;;;;;42.22;11.37;93866.03;5086368;28;20056;-55
2021/05/02 09:41:06;;;;;;;16.08;3.88;;;;;;;41.87;11.67;93881.03;5097412;28;20040;-53
2021/05/02 09:43:35;;;;;;;14.23;4.63;;;;;;;41.97;11.63;93882.28;5098735;28;20048;-53
2021/05/02 09:46:25;;;;;;;11.55;3.70;;;;;;;41.72;11.45;93875.09;5098766;28;20039;-50
2021/05/02 09:48:52;;;;;;;10.40;4.18;;;;;;;41.57;11.02;93867.81;5084373;28;20048;-54
2021/05/02 09:51:21;;;;;;;11.98;4.38;;;;;;;42.08;10.97;93874.03;5078348;28;20063;-51
2021/05/02 09:54:07;;;;;;;12.75;3.67;;;;;;;41.91;11.10;93867.09;5078502;28;20375;-53
2021/05/02 09:56:38;;;;;;;10.95;3.72;;;;;;;41.49;11.63;93869.56;5081345;28;20040;-52
2021/05/02 09:59:18;;;;;;;14.48;3.80;;;;;;;41.10;11.83;93857.78;5082652;28;20469;-52
2021/05/02 10:02:10;;;;;;;18.63;3.97;;;;;;;41.78;11.93;93862.09;5078134;28;20364;-57
2021/05/02 10:04:47;;;;;;;14.32;4.00;;;;;;;41.43;11.96;93860.59;5078086;28;20059;-52
2021/05/02 10:07:22;;;;;;;15.23;4.25;;;;;;;41.73;12.47;93862.84;5078048;28;20041;-52
2021/05/02 10:09:50;;;;;;;14.13;3.80;;;;;;;41.25;11.80;93859.09;5085726;28;20040;-57
2021/05/02 10:12:18;;;;;;;14.32;3.95;;;;;;;41.62;11.58;93862.81;5098238;28;20446;-53
2021/05/02 10:14:47;;;;;;;14.90;4.10;;;;;;;41.51;11.68;93847.88;5098169;28;20043;-53
2021/05/02 10:17:15;;;;;;;12.13;3.78;;;;;;;41.50;11.74;93840.91;5098133;28;20055;-55
2021/05/02 10:19:42;;;;;;;18.10;4.70;;;;;;;41.95;11.74;93840.88;5077134;28;20040;-55
2021/05/02 10:22:11;;;;;;;11.00;4.00;;;;;;;41.69;11.60;93835.69;5077714;28;20059;-52
2021/05/02 10:24:39;;;;;;;12.27;3.83;;;;;;;42.16;11.95;93841.31;5077778;28;20052;-52
2021/05/02 10:27:09;;;;;;;13.27;3.67;;;;;;;42.16;11.29;93846.81;5077697;28;20049;-53
2021/05/02 10:29:39;;;;;;;11.23;4.15;;;;;;;42.06;11.16;93843.59;5095241;28;20374;-52
2021/05/02 10:32:10;;;;;;;16.02;4.50;;;;;;;42.09;11.31;93847.34;5077722;28;20048;-55
2021/05/02 10:34:39;;;;;;;16.40;4.05;;;;;;;41.68;11.16;93842.41;5077508;28;20051;-51
2021/05/02 10:37:27;;;;;;;12.55;4.45;;;;;;;41.64;11.19;93836.44;5077433;28;20328;-55
2021/05/02 10:40:36;;;;;;;11.50;4.13;;;;;;;41.40;11.36;93828.69;5077219;28;20040;-52
2021/05/02 10:43:09;;;;;;;14.68;3.83;;;;;;;40.85;11.30;93827.34;5074305;28;20056;-52
2021/05/02 10:45:39;;;;;;;13.68;3.72;;;;;;;42.55;10.01;93832.97;5077556;28;20477;-53
2021/05/02 10:48:21;;;;;;;10.65;3.20;;;;;;;42.32;9.91;93837.78;5076028;28;20360;-54
2021/05/02 10:50:51;;;;;;;11.45;3.28;;;;;;;41.86;10.54;93816.44;5077129;28;20387;-55
2021/05/02 10:53:20;;;;;;;12.98;3.47;;;;;;;42.16;10.85;93813.88;5077172;28;20056;-54
2021/05/02 10:56:00;;;;;;;16.20;4.40;;;;;;;42.14;10.70;93821.88;5077238;28;20044;-51
2021/05/02 10:58:29;;;;;;;;;;;;;;;42.09;9.94;93814.41;5085754;28;20043;-50
2021/05/02 11:00:59;;;;;;;14.27;3.35;;;;;;;41.44;9.87;93812.00;5097524;28;20246;-52
2021/05/02 11:03:36;;;;;;;14.07;3.47;;;;;;;42.23;9.74;93820.84;5097169;28;20056;-52
2021/05/02 11:06:08;;;;;;;16.63;3.95;;;;;;;42.39;9.79;93809.03;5097262;28;20060;-57
2021/05/02 11:08:48;;;;;;;15.02;4.20;;;;;;;42.36;9.40;93816.28;5096969;28;20051;-53
2021/05/02 11:11:30;;;;;;;12.60;3.33;;;;;;;42.51;9.67;93816.00;5076757;28;20044;-53
2021/05/02 11:14:10;;;;;;;14.05;3.05;;;;;;;42.06;10.72;93809.91;5079097;28;20052;-52
2021/05/02 11:16:38;;;;;;;11.63;3.22;;;;;;;42.13;10.06;93812.13;5097139;28;20052;-55
2021/05/02 11:19:08;;;;;;;10.35;3.47;;;;;;;42.30;10.15;93809.34;5083567;28;20052;-52
2021/05/02 11:21:56;;;;;;;12.25;4.22;;;;;;;42.37;10.20;93808.81;5083489;28;20366;-52
2021/05/02 11:24:51;;;;;;;11.15;3.45;;;;;;;42.07;10.86;93801.19;5096728;28;20370;-53
2021/05/02 11:27:57;;;;;;;12.82;3.72;;;;;;;41.80;10.58;93804.72;5087826;28;20044;-56
2021/05/02 11:30:25;;;;;;;13.27;3.63;;;;;;;42.48;9.29;93800.56;5081925;28;20054;-50
2021/05/02 11:32:55;;;;;;;12.30;3.78;;;;;;;41.84;9.77;93794.22;5095773;28;20048;-53
2021/05/02 11:35:46;;;;;;;11.15;3.30;;;;;;;42.47;9.39;93788.06;5096648;28;20051;-52
2021/05/02 11:38:17;;;;;;;13.60;3.33;;;;;;;42.71;9.22;93785.44;5091441;28;20045;-56
2021/05/02 11:40:44;;;;;;;16.60;4.15;;;;;;;42.93;9.12;93790.06;5092238;28;20044;-53
2021/05/02 11:43:23;;;;;;;11.27;3.22;;;;;;;42.11;9.26;93767.97;5095279;28;20043;-52
2021/05/02 11:45:59;;;;;;;13.45;3.63;;;;;;;42.43;9.00;93771.09;5096482;28;20048;-53